Time;durP1;ratioP1;P1;durP2;ratioP2;P2;SDS_P1;SDS_P2;PMS_P1;PMS_P2;Temp;Humidity;BMP_temperature;BMP_pressure;BME280_temperature;BME280_humidity;BME280_pressure;Samples;Min_cycle;Max_cycle;Signal;HPM_P1;HPM_P2
2020/12/25 00:01:57;;;;;;;36.70;15.57;;;6.00;94.60;;;;;;5046945;28;20270;-70
2020/12/25 00:04:23;;;;;;;;;;;6.00;94.70;;;;;;5049140;28;20055;-71
2020/12/25 00:06:49;;;;;;;27.55;13.40;;;6.00;94.50;;;;;;5048462;28;20442;-70
2020/12/25 00:09:14;;;;;;;;;;;6.00;94.60;;;;;;5047684;28;20481;-70
2020/12/25 00:11:40;;;;;;;23.33;11.68;;;6.00;94.50;;;;;;5048356;28;19908;-71
2020/12/25 00:14:05;;;;;;;;;;;6.00;94.50;;;;;;5048521;28;20410;-69
2020/12/25 00:16:31;;;;;;;17.10;10.00;;;6.00;94.40;;;;;;5048103;28;19994;-70
2020/12/25 00:18:57;;;;;;;18.83;10.23;;;6.00;94.30;;;;;;5048361;28;20122;-71
2020/12/25 00:21:23;;;;;;;;;;;6.00;94.20;;;;;;5048703;28;20393;-70
2020/12/25 00:23:49;;;;;;;14.65;7.38;;;6.00;94.10;;;;;;5046869;28;19908;-71
2020/12/25 00:26:41;;;;;;;;;;;6.00;94.00;;;;;;5048789;28;20085;-70
2020/12/25 00:29:06;;;;;;;14.48;7.95;;;6.00;94.00;;;;;;5045433;28;19908;-70
2020/12/25 00:31:33;;;;;;;;;;;6.00;93.90;;;;;;5047335;28;20021;-71
2020/12/25 00:34:03;;;;;;;12.52;7.00;;;6.00;93.80;;;;;;5048109;28;20292;-71
2020/12/25 00:36:40;;;;;;;12.05;7.65;;;6.00;93.80;;;;;;5047933;28;20040;-70
2020/12/25 00:39:12;;;;;;;12.30;8.18;;;6.00;93.90;;;;;;5046608;28;20024;-70
2020/12/25 00:41:46;;;;;;;13.95;8.77;;;6.00;93.90;;;;;;5048052;28;20524;-71
2020/12/25 00:44:12;;;;;;;13.55;8.57;;;6.00;93.90;;;;;;5046833;28;20055;-71
2020/12/25 00:46:40;;;;;;;13.15;8.35;;;6.00;93.90;;;;;;5047910;28;20029;-71
2020/12/25 00:49:06;;;;;;;12.95;8.43;;;6.00;94.00;;;;;;5046658;28;20505;-71
2020/12/25 00:51:32;;;;;;;23.90;14.40;;;6.00;94.00;;;;;;5046527;28;20033;-71
2020/12/25 00:53:58;;;;;;;;;;;6.00;94.00;;;;;;5048188;28;20409;-71
2020/12/25 00:56:23;;;;;;;21.13;14.85;;;5.90;94.00;;;;;;5047910;28;19908;-71
2020/12/25 00:58:49;;;;;;;;;;;5.90;94.00;;;;;;5048247;28;20024;-71
2020/12/25 01:01:15;;;;;;;25.40;14.73;;;5.80;94.00;;;;;;5047975;28;20373;-71
2020/12/25 01:03:41;;;;;;;;;;;5.80;94.10;;;;;;5047030;28;20032;-71
2020/12/25 01:06:17;;;;;;;24.08;15.85;;;5.80;94.10;;;;;;5047941;28;19959;-71
2020/12/25 01:08:43;;;;;;;22.30;13.00;;;5.70;94.20;;;;;;5047584;28;20044;-70
2020/12/25 01:11:09;;;;;;;21.15;12.48;;;5.70;94.20;;;;;;5047755;28;20033;-70
2020/12/25 01:13:35;;;;;;;;;;;5.70;94.20;;;;;;5048030;28;20028;-69
2020/12/25 01:16:03;;;;;;;27.23;17.33;;;5.70;94.20;;;;;;5047657;28;19909;-71
2020/12/25 01:18:29;;;;;;;48.00;30.23;;;5.60;94.30;;;;;;5046278;28;20064;-70
2020/12/25 01:20:54;;;;;;;;;;;5.70;94.20;;;;;;5048589;28;20057;-70
2020/12/25 01:23:20;;;;;;;26.95;16.75;;;5.60;94.20;;;;;;5050034;28;20387;-70
2020/12/25 01:25:45;;;;;;;;;;;5.60;94.20;;;;;;5051819;28;20560;-71
2020/12/25 01:28:11;;;;;;;31.00;22.27;;;5.60;94.30;;;;;;5050156;28;19909;-71
2020/12/25 01:30:36;;;;;;;;;;;5.70;94.30;;;;;;5051368;28;20040;-71
2020/12/25 01:33:02;;;;;;;20.25;13.82;;;5.70;94.30;;;;;;5051228;28;19959;-71
2020/12/25 01:35:27;;;;;;;;;;;5.60;94.30;;;;;;5051555;28;20047;-71
2020/12/25 01:37:53;;;;;;;21.60;12.68;;;5.70;94.30;;;;;;5051071;28;19911;-71
2020/12/25 01:40:18;;;;;;;;;;;5.70;94.30;;;;;;5051471;28;20397;-71
2020/12/25 01:42:44;;;;;;;22.55;13.88;;;5.70;94.20;;;;;;5050788;28;19915;-70
2020/12/25 01:45:10;;;;;;;;;;;5.70;94.20;;;;;;5051156;28;20074;-69
2020/12/25 01:47:36;;;;;;;22.60;14.77;;;5.70;94.20;;;;;;5049545;28;20389;-71
2020/12/25 01:50:02;;;;;;;25.45;13.18;;;5.70;94.20;;;;;;5049480;28;20027;-70
2020/12/25 01:52:27;;;;;;;;;;;5.70;94.20;;;;;;5051135;28;20021;-71
2020/12/25 01:54:54;;;;;;;24.98;14.00;;;5.70;94.20;;;;;;5050614;28;19923;-71
2020/12/25 01:57:22;;;;;;;25.33;15.85;;;5.70;94.30;;;;;;5049256;28;20067;-71
2020/12/25 01:59:48;;;;;;;19.83;11.95;;;5.70;94.30;;;;;;5049326;28;20029;-71
2020/12/25 02:02:14;;;;;;;;;;;5.70;94.30;;;;;;5051134;28;20091;-70
2020/12/25 02:04:40;;;;;;;18.88;13.35;;;5.60;94.40;;;;;;5050405;28;19908;-71
2020/12/25 02:07:05;;;;;;;;;;;5.60;94.40;;;;;;5050991;28;20024;-71
2020/12/25 02:09:31;;;;;;;24.25;15.55;;;5.60;94.40;;;;;;5050248;28;20361;-71
2020/12/25 02:11:56;;;;;;;;;;;5.50;94.40;;;;;;5049475;28;20068;-70
2020/12/25 02:14:22;;;;;;;27.35;17.38;;;5.50;94.30;;;;;;5050144;28;20376;-70
2020/12/25 02:16:47;;;;;;;;;;;5.50;94.30;;;;;;5050687;28;20032;-70
2020/12/25 02:19:14;;;;;;;22.60;16.80;;;5.50;94.20;;;;;;5050148;28;20385;-71
2020/12/25 02:21:40;;;;;;;25.58;16.60;;;5.50;94.20;;;;;;5050301;28;20067;-70
2020/12/25 02:24:05;;;;;;;;;;;5.40;94.30;;;;;;5049246;28;20029;-70
2020/12/25 02:26:31;;;;;;;22.67;14.90;;;5.40;94.40;;;;;;5049913;28;19966;-70
2020/12/25 02:28:56;;;;;;;;;;;5.30;94.40;;;;;;5050678;28;20036;-70
2020/12/25 02:31:22;;;;;;;26.00;15.95;;;5.20;94.40;;;;;;5048436;28;19995;-70
2020/12/25 02:33:48;;;;;;;;;;;5.20;94.60;;;;;;5050311;28;20072;-71
2020/12/25 02:36:14;;;;;;;25.73;15.95;;;5.10;94.60;;;;;;5049916;28;19954;-70
2020/12/25 02:38:39;;;;;;;;;;;5.10;94.70;;;;;;5050155;28;20029;-71
2020/12/25 02:41:05;;;;;;;28.65;17.13;;;5.00;94.80;;;;;;5048520;28;19909;-70
2020/12/25 02:43:30;;;;;;;;;;;5.10;94.90;;;;;;5049101;28;20032;-71
2020/12/25 02:45:56;;;;;;;30.52;15.32;;;5.00;94.90;;;;;;5049748;28;19908;-70
2020/12/25 02:48:22;;;;;;;;;;;5.00;94.90;;;;;;5049140;28;20029;-70
2020/12/25 02:50:47;;;;;;;26.38;15.30;;;5.00;95.00;;;;;;5048444;28;19979;-70
2020/12/25 02:53:13;;;;;;;;;;;5.00;95.00;;;;;;5050178;28;20047;-69
2020/12/25 02:55:38;;;;;;;22.40;14.82;;;4.90;95.00;;;;;;5049516;28;19925;-71
2020/12/25 02:58:04;;;;;;;;;;;4.90;95.00;;;;;;5049943;28;20063;-70
2020/12/25 03:00:29;;;;;;;33.15;19.90;;;4.90;95.00;;;;;;5048059;28;19905;-70
2020/12/25 03:02:55;;;;;;;;;;;4.80;95.00;;;;;;5048572;28;20025;-69
2020/12/25 03:05:20;;;;;;;36.38;18.75;;;4.80;94.90;;;;;;5049483;28;19915;-71
2020/12/25 03:07:46;;;;;;;;;;;4.80;94.80;;;;;;5049812;28;20033;-71
2020/12/25 03:10:12;;;;;;;37.70;24.40;;;4.80;94.90;;;;;;5048361;28;20445;-70
2020/12/25 03:12:37;;;;;;;;;;;4.70;95.10;;;;;;5049527;28;20660;-70
2020/12/25 03:15:03;;;;;;;23.05;16.25;;;4.70;95.10;;;;;;5049084;28;19960;-70
2020/12/25 03:17:29;;;;;;;;;;;4.70;95.20;;;;;;5049505;28;20547;-71
2020/12/25 03:19:54;;;;;;;21.92;13.90;;;4.70;95.20;;;;;;5047783;28;19909;-69
2020/12/25 03:22:20;;;;;;;;;;;4.60;95.20;;;;;;5048118;28;20021;-70
2020/12/25 03:24:45;;;;;;;20.20;13.48;;;4.60;95.20;;;;;;5048982;28;19916;-70
2020/12/25 03:27:11;;;;;;;;;;;4.60;95.30;;;;;;5049497;28;20025;-71
2020/12/25 03:29:36;;;;;;;19.88;12.32;;;4.60;95.30;;;;;;5048995;28;20401;-71
2020/12/25 03:32:02;;;;;;;;;;;4.50;95.60;;;;;;5049335;28;20027;-70
2020/12/25 03:34:28;;;;;;;40.15;24.33;;;4.50;95.40;;;;;;5048811;28;20355;-71
2020/12/25 03:36:55;;;;;;;29.70;18.65;;;4.60;95.30;;;;;;5048619;28;20021;-70
2020/12/25 03:39:20;;;;;;;35.70;21.13;;;4.60;95.10;;;;;;5047362;28;20025;-70
2020/12/25 03:41:46;;;;;;;;;;;4.60;95.00;;;;;;5049271;28;20074;-69
2020/12/25 03:44:11;;;;;;;33.17;19.10;;;4.50;95.10;;;;;;5047113;28;19944;-70
2020/12/25 03:46:37;;;;;;;;;;;4.50;95.30;;;;;;5048978;28;20674;-70
2020/12/25 03:49:04;;;;;;;27.23;17.45;;;4.50;95.20;;;;;;5048714;28;20304;-71
2020/12/25 03:51:30;;;;;;;35.38;19.20;;;4.50;95.30;;;;;;5048622;28;20029;-69
2020/12/25 03:53:55;;;;;;;;;;;4.50;95.40;;;;;;5048972;28;20024;-70
2020/12/25 03:56:21;;;;;;;29.02;17.83;;;4.50;95.50;;;;;;5048486;28;19916;-71
2020/12/25 03:58:46;;;;;;;;;;;4.40;95.50;;;;;;5048786;28;20031;-71
2020/12/25 04:01:12;;;;;;;23.38;13.15;;;4.50;95.60;;;;;;5048429;28;20377;-71
2020/12/25 04:03:38;;;;;;;;;;;4.40;95.60;;;;;;5047652;28;20029;-70
2020/12/25 04:06:03;;;;;;;19.33;13.65;;;4.40;95.50;;;;;;5048581;28;19909;-72
2020/12/25 04:08:29;;;;;;;;;;;4.40;95.50;;;;;;5048704;28;20041;-71
2020/12/25 04:10:54;;;;;;;30.85;17.55;;;4.40;95.50;;;;;;5048771;28;19912;-70
2020/12/25 04:13:21;;;;;;;;;;;4.40;95.60;;;;;;5048689;28;20024;-70
2020/12/25 04:15:47;;;;;;;29.23;14.93;;;4.40;95.50;;;;;;5048350;28;20011;-70
2020/12/25 04:18:13;;;;;;;;;;;4.40;95.40;;;;;;5047555;28;20109;-70
2020/12/25 04:20:38;;;;;;;25.40;15.27;;;4.30;95.40;;;;;;5046835;28;19909;-70
2020/12/25 04:23:04;;;;;;;;;;;4.30;95.30;;;;;;5048521;28;20032;-71
2020/12/25 04:25:29;;;;;;;30.42;19.17;;;4.30;95.20;;;;;;5048288;28;19908;-70
2020/12/25 04:27:55;;;;;;;;;;;4.30;95.20;;;;;;5048671;28;20529;-70
2020/12/25 04:30:20;;;;;;;28.08;18.85;;;4.30;95.20;;;;;;5048212;28;19999;-70
2020/12/25 04:32:46;;;;;;;;;;;4.20;95.20;;;;;;5048315;28;20021;-71
2020/12/25 04:35:11;;;;;;;31.27;19.27;;;4.20;95.20;;;;;;5048208;28;19917;-70
2020/12/25 04:37:37;;;;;;;;;;;4.20;95.30;;;;;;5048356;28;20029;-71
2020/12/25 04:40:04;;;;;;;25.02;16.23;;;4.20;95.30;;;;;;5048033;28;20038;-70
2020/12/25 04:42:30;;;;;;;29.23;17.80;;;4.20;95.30;;;;;;5047853;28;20040;-69
2020/12/25 04:44:55;;;;;;;29.88;18.60;;;4.10;95.30;;;;;;5046833;28;20029;-70
2020/12/25 04:47:21;;;;;;;;;;;4.10;95.30;;;;;;5047303;28;20509;-70
2020/12/25 04:49:48;;;;;;;31.88;17.98;;;4.10;95.30;;;;;;5046459;28;19916;-70
2020/12/25 04:52:13;;;;;;;27.35;16.52;;;4.10;95.30;;;;;;5047877;28;20041;-69
2020/12/25 04:54:39;;;;;;;;;;;4.10;95.30;;;;;;5048165;28;20033;-70
2020/12/25 04:57:05;;;;;;;22.50;13.90;;;4.10;95.30;;;;;;5050091;28;19908;-70
2020/12/25 04:59:30;;;;;;;;;;;4.10;95.30;;;;;;5052128;28;20545;-71
2020/12/25 05:02:00;;;;;;;27.75;16.58;;;4.10;95.20;;;;;;5051789;28;19908;-71
2020/12/25 05:04:26;;;;;;;18.98;11.75;;;4.10;95.10;;;;;;5050612;28;20600;-70
2020/12/25 05:06:53;;;;;;;14.70;10.50;;;4.10;95.00;;;;;;5051621;28;20033;-70
2020/12/25 05:09:23;;;;;;;27.85;16.60;;;4.10;95.00;;;;;;5050156;28;20044;-70
2020/12/25 05:11:53;;;;;;;31.20;17.90;;;4.10;94.80;;;;;;5051479;28;20044;-70
2020/12/25 05:14:24;;;;;;;31.63;18.75;;;4.10;94.60;;;;;;5051317;28;20060;-70
2020/12/25 05:16:56;;;;;;;24.98;14.85;;;4.00;94.60;;;;;;5051367;28;20090;-70
2020/12/25 05:19:31;;;;;;;24.48;15.00;;;4.00;94.50;;;;;;5051375;28;20029;-70
2020/12/25 05:22:00;;;;;;;24.52;14.45;;;3.90;94.60;;;;;;5049927;28;20082;-70
2020/12/25 05:24:27;;;;;;;22.30;14.82;;;3.80;94.60;;;;;;5051179;28;20142;-70
2020/12/25 05:26:57;;;;;;;24.75;14.00;;;3.90;94.70;;;;;;5050068;28;20033;-71
2020/12/25 05:29:24;;;;;;;27.05;15.10;;;3.90;94.80;;;;;;5051144;28;20048;-70
2020/12/25 05:31:51;;;;;;;20.92;12.88;;;3.90;94.80;;;;;;5051074;28;20036;-70
2020/12/25 05:34:18;;;;;;;23.25;13.18;;;3.90;94.70;;;;;;5049716;28;20105;-70
2020/12/25 05:36:51;;;;;;;19.75;14.18;;;3.90;94.70;;;;;;5050872;28;20068;-70
2020/12/25 05:39:47;;;;;;;24.75;14.52;;;3.80;94.70;;;;;;5051096;28;20580;-70
2020/12/25 05:42:12;;;;;;;19.42;12.68;;;3.80;94.80;;;;;;5050506;28;20478;-70
2020/12/25 05:44:44;;;;;;;;;;;3.80;94.70;;;;;;5051247;28;20508;-70
2020/12/25 05:47:16;;;;;;;26.10;14.38;;;3.80;94.70;;;;;;5049963;28;19947;-70
2020/12/25 05:49:42;;;;;;;20.33;13.57;;;3.80;94.60;;;;;;5049528;28;20120;-70
2020/12/25 05:52:09;;;;;;;24.35;13.18;;;3.80;94.70;;;;;;5049670;28;20072;-70
2020/12/25 05:54:35;;;;;;;20.02;13.57;;;3.70;94.60;;;;;;5049145;28;20029;-71
2020/12/25 05:57:01;;;;;;;23.27;14.90;;;3.70;94.70;;;;;;5050797;28;20020;-70
2020/12/25 05:59:26;;;;;;;22.83;14.98;;;3.70;94.70;;;;;;5050554;28;20029;-70
2020/12/25 06:01:59;;;;;;;;;;;3.70;94.70;;;;;;5050954;28;20048;-71
2020/12/25 06:04:26;;;;;;;16.10;11.93;;;3.70;94.80;;;;;;5050581;28;19908;-70
2020/12/25 06:06:53;;;;;;;26.30;18.25;;;3.80;94.80;;;;;;5050081;28;20047;-70
2020/12/25 06:09:20;;;;;;;21.05;12.25;;;3.80;94.90;;;;;;5049299;28;20033;-84
2020/12/25 06:11:51;;;;;;;19.77;13.38;;;3.80;94.90;;;;;;5048923;28;20401;-70
2020/12/25 06:14:18;;;;;;;24.45;14.75;;;3.80;94.80;;;;;;5050439;28;20087;-70
2020/12/25 06:16:59;;;;;;;17.35;12.20;;;3.80;94.90;;;;;;5050180;28;20632;-69
2020/12/25 06:19:30;;;;;;;17.15;10.75;;;3.90;94.90;;;;;;5042512;28;20137;-70
2020/12/25 06:21:59;;;;;;;23.15;13.27;;;3.80;94.70;;;;;;5028915;28;20037;-70
2020/12/25 06:24:37;;;;;;;26.08;15.63;;;3.80;94.70;;;;;;5030346;28;20029;-70
2020/12/25 06:27:04;;;;;;;21.67;13.07;;;3.70;94.60;;;;;;5030359;28;20064;-71
2020/12/25 06:29:30;;;;;;;30.23;16.85;;;3.60;94.50;;;;;;5030279;28;20089;-70
2020/12/25 06:31:56;;;;;;;;;;;3.60;94.60;;;;;;5030411;28;20072;-70
2020/12/25 06:34:38;;;;;;;32.03;16.73;;;3.60;94.50;;;;;;5030119;28;19935;-70
2020/12/25 06:37:07;;;;;;;27.88;15.25;;;3.50;94.70;;;;;;5029767;28;20490;-70
2020/12/25 06:39:33;;;;;;;21.15;13.48;;;3.50;94.70;;;;;;5028740;28;20485;-70
2020/12/25 06:41:58;;;;;;;;;;;3.50;94.80;;;;;;5030165;28;20037;-70
2020/12/25 06:44:29;;;;;;;23.30;14.30;;;3.50;95.00;;;;;;5028532;28;19905;-70
2020/12/25 06:47:02;;;;;;;26.95;17.45;;;3.50;94.90;;;;;;5029942;28;20029;-69
2020/12/25 06:49:37;;;;;;;50.30;26.48;;;3.60;94.80;;;;;;5029752;28;20030;-70
2020/12/25 06:52:03;;;;;;;36.08;19.90;;;3.60;94.80;;;;;;5034915;28;20026;-70
2020/12/25 06:54:38;;;;;;;;;;;3.50;94.80;;;;;;5046595;28;20502;-71
2020/12/25 06:57:04;;;;;;;27.98;17.77;;;3.50;94.80;;;;;;5046809;28;19924;-71
2020/12/25 06:59:29;;;;;;;;;;;3.50;95.10;;;;;;5032903;28;20057;-69
2020/12/25 07:01:56;;;;;;;17.55;11.75;;;3.50;94.90;;;;;;5038131;28;20507;-71
2020/12/25 07:04:26;;;;;;;10.40;6.55;;;3.60;94.90;;;;;;5047988;28;20029;-71
2020/12/25 07:06:54;;;;;;;12.18;7.85;;;3.70;94.80;;;;;;5047574;28;20115;-70
2020/12/25 07:09:20;;;;;;;21.40;12.05;;;3.80;94.50;;;;;;5049349;28;20165;-70
2020/12/25 07:11:50;;;;;;;;;;;3.90;94.40;;;;;;5049518;28;20497;-71
2020/12/25 07:14:16;;;;;;;23.90;12.70;;;4.00;94.10;;;;;;5049148;28;19916;-70
2020/12/25 07:16:41;;;;;;;;;;;4.00;94.10;;;;;;5049680;28;20504;-71
2020/12/25 07:19:07;;;;;;;15.43;9.85;;;4.10;93.80;;;;;;5047308;28;19958;-71
2020/12/25 07:21:33;;;;;;;;;;;4.20;93.50;;;;;;5049643;28;20476;-71
2020/12/25 07:23:59;;;;;;;13.80;8.38;;;4.40;92.60;;;;;;5049215;28;20287;-71
2020/12/25 07:26:24;;;;;;;;;;;4.60;91.90;;;;;;5049392;28;20056;-71
2020/12/25 07:28:50;;;;;;;6.22;3.00;;;4.80;91.30;;;;;;5048951;28;19909;-71
2020/12/25 07:31:18;;;;;;;;;;;4.90;90.80;;;;;;5047922;28;20108;-71
2020/12/25 07:33:54;;;;;;;5.00;3.08;;;5.00;90.50;;;;;;5048773;28;19909;-71
2020/12/25 07:36:21;;;;;;;;;;;5.00;90.70;;;;;;5048113;28;20417;-71
2020/12/25 07:38:46;;;;;;;13.55;9.35;;;5.10;90.50;;;;;;5047242;28;19912;-71
2020/12/25 07:41:12;;;;;;;;;;;5.10;90.60;;;;;;5047762;28;20029;-72
2020/12/25 07:43:38;;;;;;;19.77;10.45;;;5.00;90.70;;;;;;5048652;28;19992;-71
2020/12/25 07:46:10;;;;;;;18.05;10.00;;;4.90;90.80;;;;;;5048684;28;20087;-71
2020/12/25 07:48:35;;;;;;;12.52;7.40;;;4.80;91.10;;;;;;5048620;28;20029;-71
2020/12/25 07:51:01;;;;;;;;;;;4.70;91.40;;;;;;5049175;28;20044;-71
2020/12/25 07:53:30;;;;;;;17.02;7.57;;;4.70;91.60;;;;;;5047470;28;19908;-71
2020/12/25 07:55:58;;;;;;;11.65;7.22;;;4.60;91.70;;;;;;5048432;28;20036;-72
2020/12/25 07:58:24;;;;;;;35.75;16.35;;;4.60;91.90;;;;;;5048518;28;20024;-71
2020/12/25 08:00:49;;;;;;;;;;;4.60;91.80;;;;;;5048794;28;20025;-71
2020/12/25 08:03:15;;;;;;;51.05;20.77;;;4.50;91.80;;;;;;5046956;28;20016;-70
2020/12/25 08:05:41;;;;;;;;;;;4.50;91.90;;;;;;5048990;28;20060;-71
2020/12/25 08:08:07;;;;;;;13.27;7.07;;;4.40;91.90;;;;;;5048466;28;20333;-71
2020/12/25 08:10:34;;;;;;;7.65;4.53;;;4.50;91.50;;;;;;5048450;28;20024;-71
2020/12/25 08:13:00;;;;;;;8.52;4.88;;;4.60;91.30;;;;;;5048487;28;20032;-71
2020/12/25 08:15:26;;;;;;;;;;;4.60;91.20;;;;;;5047230;28;20052;-71
2020/12/25 08:17:54;;;;;;;22.88;15.27;;;4.60;91.10;;;;;;5048139;28;19939;-70
2020/12/25 08:20:23;;;;;;;16.02;10.18;;;4.70;90.70;;;;;;5048196;28;20032;-70
2020/12/25 08:22:50;;;;;;;25.90;14.13;;;4.70;90.70;;;;;;5047922;28;20025;-70
2020/12/25 08:25:17;;;;;;;74.75;39.88;;;4.60;90.90;;;;;;5046840;28;20017;-70
2020/12/25 08:27:44;;;;;;;123.75;64.05;;;4.60;91.10;;;;;;5048192;28;20025;-70
2020/12/25 08:30:10;;;;;;;125.32;65.57;;;4.60;91.20;;;;;;5049052;28;20024;-70
2020/12/25 08:32:35;;;;;;;;;;;4.50;91.30;;;;;;5052585;28;20032;-70
2020/12/25 08:35:28;;;;;;;15.20;9.73;;;4.50;91.60;;;;;;5052191;28;19978;-70
2020/12/25 08:38:00;;;;;;;13.50;9.00;;;4.50;91.90;;;;;;5051876;28;20028;-71
2020/12/25 08:40:30;;;;;;;12.32;8.10;;;4.40;91.70;;;;;;5052212;28;20059;-71
2020/12/25 08:43:16;;;;;;;12.55;9.27;;;4.40;91.90;;;;;;5052213;28;20029;-70
2020/12/25 08:45:58;;;;;;;16.05;10.98;;;4.40;92.00;;;;;;5050651;28;20062;-71
2020/12/25 08:48:24;;;;;;;18.33;12.70;;;4.30;92.10;;;;;;5050650;28;20040;-70
2020/12/25 08:50:49;;;;;;;;;;;4.30;92.30;;;;;;5052342;28;20025;-71
2020/12/25 08:53:20;;;;;;;26.48;16.27;;;4.30;92.40;;;;;;5052170;28;20357;-71
2020/12/25 08:55:50;;;;;;;58.83;42.97;;;4.30;92.50;;;;;;5051922;28;20112;-70
2020/12/25 08:58:17;;;;;;;41.22;28.75;;;4.30;92.60;;;;;;5051913;28;20025;-71
2020/12/25 09:00:42;;;;;;;33.05;23.77;;;4.40;92.60;;;;;;5051716;28;20107;-70
2020/12/25 09:03:08;;;;;;;;;;;4.40;92.70;;;;;;5052073;28;20068;-71
2020/12/25 09:05:34;;;;;;;30.80;20.83;;;4.50;92.70;;;;;;5051659;28;19904;-70
2020/12/25 09:08:00;;;;;;;;;;;4.50;92.70;;;;;;5050607;28;20523;-70
2020/12/25 09:10:26;;;;;;;46.50;33.25;;;4.50;92.60;;;;;;5050362;28;19998;-70
2020/12/25 09:12:51;;;;;;;;;;;4.50;92.60;;;;;;5051787;28;20049;-71
2020/12/25 09:15:17;;;;;;;32.67;22.55;;;4.50;92.70;;;;;;5050068;28;19927;-70
2020/12/25 09:17:43;;;;;;;;;;;4.60;92.60;;;;;;5050779;28;20032;-70
2020/12/25 09:20:08;;;;;;;26.80;18.10;;;4.60;92.20;;;;;;5051527;28;19912;-70
2020/12/25 09:22:34;;;;;;;;;;;4.70;91.80;;;;;;5051781;28;20021;-71
2020/12/25 09:24:59;;;;;;;23.30;16.02;;;4.60;91.70;;;;;;5050198;28;19908;-72
2020/12/25 09:27:25;;;;;;;;;;;4.60;91.90;;;;;;5051811;28;20025;-71
2020/12/25 09:29:51;;;;;;;23.75;17.30;;;4.50;92.10;;;;;;5051263;28;20400;-71
2020/12/25 09:32:16;;;;;;;;;;;4.60;92.20;;;;;;5048544;28;20029;-71
2020/12/25 09:34:42;;;;;;;19.67;12.68;;;4.60;92.20;;;;;;5051209;28;19917;-71
2020/12/25 09:37:07;;;;;;;;;;;4.60;92.30;;;;;;5051394;28;20032;-69
2020/12/25 09:39:33;;;;;;;19.08;13.15;;;4.60;92.30;;;;;;5049897;28;19916;-71
2020/12/25 09:41:58;;;;;;;;;;;4.70;92.40;;;;;;5050488;28;20029;-70
2020/12/25 09:44:24;;;;;;;22.02;15.60;;;4.80;92.30;;;;;;5049586;28;19970;-71
2020/12/25 09:46:49;;;;;;;;;;;4.80;92.40;;;;;;5051120;28;20526;-70
2020/12/25 09:49:15;;;;;;;23.80;16.30;;;4.90;92.20;;;;;;5049503;28;19909;-71
2020/12/25 09:51:40;;;;;;;;;;;5.00;92.20;;;;;;5049645;28;20169;-70
2020/12/25 09:54:06;;;;;;;36.28;25.30;;;5.20;91.80;;;;;;5049243;28;19916;-71
2020/12/25 09:56:31;;;;;;;;;;;5.20;91.10;;;;;;5051015;28;20033;-71
2020/12/25 09:58:57;;;;;;;17.83;12.95;;;5.40;90.80;;;;;;5050790;28;20442;-70
2020/12/25 10:01:22;;;;;;;;;;;5.30;90.90;;;;;;5051066;28;20017;-71
2020/12/25 10:03:48;;;;;;;21.40;15.82;;;5.40;91.30;;;;;;5050685;28;20325;-71
2020/12/25 10:06:17;;;;;;;;;;;5.50;91.50;;;;;;5051067;28;20036;-70
2020/12/25 10:08:43;;;;;;;23.27;14.40;;;5.60;91.30;;;;;;5050521;28;20408;-70
2020/12/25 10:11:08;;;;;;;;;;;5.60;91.10;;;;;;5050866;28;20029;-71
2020/12/25 10:13:34;;;;;;;24.75;13.75;;;5.70;90.20;;;;;;5050353;28;19934;-71
2020/12/25 10:15:59;;;;;;;;;;;5.80;90.30;;;;;;5050687;28;20052;-71
2020/12/25 10:18:25;;;;;;;55.28;27.58;;;5.80;89.40;;;;;;5048955;28;20411;-71
2020/12/25 10:20:50;;;;;;;;;;;6.00;89.10;;;;;;5050643;28;20100;-71
2020/12/25 10:23:16;;;;;;;25.67;16.73;;;6.10;89.00;;;;;;5048858;28;20362;-71
2020/12/25 10:25:42;;;;;;;;;;;6.20;89.90;;;;;;5050722;28;20029;-71
2020/12/25 10:28:07;;;;;;;19.58;12.88;;;6.30;88.70;;;;;;5050273;28;19955;-71
2020/12/25 10:30:33;;;;;;;;;;;6.30;88.70;;;;;;5050534;28;20071;-70
2020/12/25 10:32:58;;;;;;;13.73;9.65;;;6.30;89.20;;;;;;5050263;28;19917;-70
2020/12/25 10:35:24;;;;;;;;;;;6.30;90.00;;;;;;5048846;28;20806;-71
2020/12/25 10:37:50;;;;;;;18.75;13.45;;;6.40;89.60;;;;;;5049822;28;19943;-70
2020/12/25 10:40:15;;;;;;;;;;;6.50;89.30;;;;;;5050191;28;20028;-70
2020/12/25 10:42:41;;;;;;;14.88;11.15;;;6.60;87.40;;;;;;5048402;28;19912;-70
2020/12/25 10:45:06;;;;;;;;;;;6.60;87.80;;;;;;5050264;28;20079;-70
2020/12/25 10:47:33;;;;;;;20.67;13.43;;;6.60;87.00;;;;;;5048450;28;19909;-71
2020/12/25 10:49:59;;;;;;;16.15;11.52;;;6.60;86.80;;;;;;5049749;28;20036;-70
2020/12/25 10:52:24;;;;;;;;;;;6.60;87.40;;;;;;5048696;28;20029;-70
2020/12/25 10:54:50;;;;;;;21.58;15.38;;;6.70;87.90;;;;;;5048445;28;20363;-70
2020/12/25 10:57:16;;;;;;;;;;;6.70;88.00;;;;;;5048840;28;20024;-70
2020/12/25 10:59:41;;;;;;;21.02;12.25;;;6.80;87.70;;;;;;5048328;28;20443;-70
2020/12/25 11:02:07;;;;;;;;;;;6.90;88.00;;;;;;5049915;28;20032;-70
2020/12/25 11:04:33;;;;;;;25.70;14.48;;;7.00;87.60;;;;;;5049282;28;20431;-71
2020/12/25 11:06:58;;;;;;;;;;;7.00;88.00;;;;;;5048479;28;20064;-70
2020/12/25 11:09:24;;;;;;;20.52;12.82;;;7.00;86.50;;;;;;5048039;28;20412;-70
2020/12/25 11:11:49;;;;;;;;;;;7.00;86.90;;;;;;5048260;28;20144;-70
2020/12/25 11:14:15;;;;;;;21.77;13.57;;;7.10;87.00;;;;;;5049151;28;20015;-70
2020/12/25 11:16:41;;;;;;;;;;;7.20;87.10;;;;;;5048170;28;20032;-70
2020/12/25 11:19:08;;;;;;;22.40;14.48;;;7.20;86.60;;;;;;5049092;28;19912;-69
2020/12/25 11:21:34;;;;;;;18.05;12.40;;;7.30;86.80;;;;;;5047746;28;20024;-71
2020/12/25 11:24:00;;;;;;;;;;;7.30;86.90;;;;;;5048160;28;20035;-69
2020/12/25 11:26:36;;;;;;;13.40;8.87;;;7.40;86.70;;;;;;5048941;28;20388;-70
2020/12/25 11:29:07;;;;;;;13.77;8.88;;;7.50;86.90;;;;;;5048276;28;20268;-70
2020/12/25 11:31:34;;;;;;;14.82;7.53;;;7.50;86.10;;;;;;5048954;28;20572;-70
2020/12/25 11:34:00;;;;;;;15.95;10.07;;;7.50;86.30;;;;;;5048905;28;20136;-70
2020/12/25 11:36:26;;;;;;;;;;;7.60;85.70;;;;;;5049232;28;20104;-69
2020/12/25 11:38:53;;;;;;;18.67;11.32;;;7.60;85.60;;;;;;5048756;28;19939;-69
2020/12/25 11:41:21;;;;;;;16.92;9.90;;;7.60;85.40;;;;;;5047337;28;20036;-70
2020/12/25 11:43:48;;;;;;;19.02;11.77;;;7.50;85.80;;;;;;5047648;28;20528;-69
2020/12/25 11:46:15;;;;;;;20.70;12.63;;;7.40;85.40;;;;;;5047614;28;20044;-70
2020/12/25 11:48:40;;;;;;;20.33;11.27;;;7.40;85.90;;;;;;5048471;28;20545;-71
2020/12/25 11:51:06;;;;;;;;;;;7.40;86.30;;;;;;5049063;28;20104;-70
2020/12/25 11:53:32;;;;;;;16.52;9.98;;;7.50;86.30;;;;;;5048547;28;19940;-70
2020/12/25 11:55:58;;;;;;;;;;;7.50;86.10;;;;;;5049067;28;20118;-69
2020/12/25 11:58:23;;;;;;;22.73;14.13;;;7.50;84.00;;;;;;5047300;28;19916;-72
2020/12/25 12:00:49;;;;;;;;;;;7.40;83.80;;;;;;5047318;28;20064;-72
2020/12/25 12:03:15;;;;;;;37.42;27.23;;;7.40;84.10;;;;;;5048389;28;20360;-72
2020/12/25 12:05:41;;;;;;;;;;;7.50;83.50;;;;;;5048588;28;20029;-69
2020/12/25 12:08:07;;;;;;;27.10;12.60;;;7.30;84.20;;;;;;5048475;28;19909;-72
2020/12/25 12:10:33;;;;;;;17.80;12.95;;;7.30;84.50;;;;;;5048142;28;20035;-71
2020/12/25 12:12:59;;;;;;;;;;;7.30;84.20;;;;;;5047603;28;20037;-71
2020/12/25 12:15:25;;;;;;;18.77;13.52;;;7.20;84.20;;;;;;5046794;28;19978;-72
2020/12/25 12:17:51;;;;;;;;;;;7.10;84.30;;;;;;5048759;28;20037;-72
2020/12/25 12:20:16;;;;;;;24.20;15.55;;;7.10;84.50;;;;;;5048259;28;19913;-72
2020/12/25 12:22:42;;;;;;;;;;;7.10;84.80;;;;;;5048540;28;20500;-72
2020/12/25 12:25:08;;;;;;;15.98;11.82;;;7.10;85.70;;;;;;5046969;28;19904;-72
2020/12/25 12:27:34;;;;;;;;;;;7.10;86.00;;;;;;5048684;28;20099;-71
2020/12/25 12:30:02;;;;;;;18.88;12.88;;;7.10;85.90;;;;;;5048191;28;19999;-72
2020/12/25 12:32:28;;;;;;;21.67;13.73;;;7.10;86.40;;;;;;5047004;28;20037;-71
2020/12/25 12:34:53;;;;;;;;;;;7.10;86.50;;;;;;5048224;28;20433;-71
2020/12/25 12:37:19;;;;;;;44.80;23.05;;;7.20;86.80;;;;;;5047979;28;19931;-71
2020/12/25 12:39:45;;;;;;;;;;;7.20;86.50;;;;;;5048395;28;20033;-71
2020/12/25 12:42:10;;;;;;;41.60;22.00;;;7.20;86.50;;;;;;5046661;28;19909;-70
2020/12/25 12:44:36;;;;;;;;;;;7.20;87.60;;;;;;5046902;28;20032;-71
2020/12/25 12:47:01;;;;;;;32.88;19.15;;;7.30;86.70;;;;;;5048054;28;19908;-72
2020/12/25 12:49:27;;;;;;;;;;;7.30;87.00;;;;;;5048447;28;20029;-72
2020/12/25 12:51:52;;;;;;;20.42;12.65;;;7.30;87.30;;;;;;5047930;28;19909;-71
2020/12/25 12:54:18;;;;;;;;;;;7.30;88.10;;;;;;5048668;28;20510;-71
2020/12/25 12:56:44;;;;;;;17.42;12.77;;;7.30;88.40;;;;;;5046376;28;20050;-71
2020/12/25 12:59:10;;;;;;;16.45;11.25;;;7.20;88.20;;;;;;5047782;28;20061;-71
2020/12/25 13:01:36;;;;;;;;;;;7.10;88.50;;;;;;5048318;28;20060;-71
2020/12/25 13:04:01;;;;;;;14.77;10.50;;;7.10;88.70;;;;;;5046505;28;19909;-71
2020/12/25 13:06:27;;;;;;;;;;;7.00;88.90;;;;;;5046825;28;20655;-71
2020/12/25 13:08:52;;;;;;;15.50;10.55;;;6.90;89.50;;;;;;5047551;28;19959;-70
2020/12/25 13:11:24;;;;;;;;;;;6.90;89.70;;;;;;5048224;28;20111;-71
2020/12/25 13:13:50;;;;;;;42.42;29.50;;;6.80;90.10;;;;;;5047587;28;19919;-71